METAR Data
IDs: Format: Raw Decoded Include TAF

Data at: 2249 UTC 10 May 2021

KGNB 102235Z AUTO 30003KT 1/4SM SN OVC004 00/00 A3006 RMK AO2 T00000000
KGNB 102215Z AUTO 32012G20KT 1 1/4SM -SN SCT008 BKN019 OVC039 01/00 A3005 RMK AO2 T00071001
KGNB 102155Z AUTO 36010KT 10SM SCT010 BKN024 OVC070 03/01 A3002 RMK AO2 T00310011
KGNB 102135Z AUTO 32014KT 7SM -SN BKN021 OVC027 03/00 A3002 RMK AO2 T00291001
KGNB 102115Z AUTO 01006KT 10SM SCT019 BKN025 OVC035 05/00 A3001 RMK AO2 T00460001
KGNB 102055Z AUTO 33007KT 10SM BKN019 OVC036 04/00 A3001 RMK AO2 LTG DSNT NW T00410003
KGNB 102035Z AUTO 34008KT 10SM BKN019 OVC029 04/01 A3001 RMK AO2 LTG DSNT NW T00370006
KGNB 102015Z AUTO 32009KT 10SM SCT015 BKN022 OVC039 04/00 A3001 RMK AO2 T00370004
KGNB 101955Z AUTO 17003KT 10SM SCT027 BKN035 OVC048 05/00 A3001 RMK AO2 T00451003
KGNB 101935Z AUTO 00000KT 10SM SCT025 BKN034 OVC043 04/00 A3001 RMK AO2 T00441001
KGNB 101915Z AUTO 20003KT 10SM SCT021 BKN029 OVC045 05/00 A3002 RMK AO2 T00451004
KGNB 101855Z AUTO 20006KT 10SM BKN021 BKN029 OVC035 04/00 A3002 RMK AO2 T00390002
KGNB 101835Z AUTO 19005KT 10SM UP SCT014 BKN026 OVC037 04/00 A3003 RMK AO2 T00360001
KGNB 101815Z AUTO 20005KT 10SM BKN015 BKN020 OVC043 03/01 A3003 RMK AO2 T00340011
KGNB 101755Z AUTO 18006KT 10SM SCT009 BKN012 OVC047 03/01 A3004 RMK AO2 LTG DSNT NW T00300007 10030 21011
KGNB 101735Z AUTO 17006KT 10SM BKN007 OVC012 03/01 A3004 RMK AO2 T00250011
KGNB 101715Z AUTO 16006KT 3SM -SN BKN007 OVC012 02/01 A3004 RMK AO2 T00160010
KGNB 101655Z AUTO 15005KT 7SM -SN BKN009 BKN018 OVC042 02/01 A3004 RMK AO2 T00170007
KGNB 101635Z AUTO 18003KT 10SM -SN SCT003 BKN042 OVC048 02/01 A3004 RMK AO2 T00160008
KGNB 101615Z AUTO 00000KT 5SM -SN BKN005 BKN030 OVC045 01/00 A3004 RMK AO2 T00070002
KGNB 101555Z AUTO 00000KT 2 1/2SM -SN OVC005 01/00 A3005 RMK AO2 T00060001
KGNB 101535Z AUTO 00000KT 4SM -SN BKN005 OVC020 01/00 A3004 RMK AO2 T00050000
KGNB 101515Z AUTO 00000KT 7SM -RA SCT005 BKN013 OVC046 00/00 A3005 RMK AO2 T00031001
KGNB 101455Z AUTO 00000KT 4SM -SN BKN005 OVC031 00/00 A3005 RMK AO2 T00021001
KGNB 101435Z AUTO 00000KT 5SM -SN BKN003 BKN031 OVC041 00/00 A3005 RMK AO2 T00001004
KGNB 101415Z AUTO 00000KT 3SM -SN SCT003 BKN030 OVC042 00/M01 A3006 RMK AO2 T10031006
KGNB 101355Z AUTO 00000KT 5SM UP BKN032 OVC041 00/M01 A3006 RMK AO2 T10051007
KGNB 101335Z AUTO 00000KT 2 1/2SM UP SCT013 BKN034 OVC040 M01/M01 A3005 RMK AO2 T10071011
KGNB 101315Z AUTO 00000KT 4SM -SN SCT013 BKN041 OVC048 M01/M01 A3005 RMK AO2 T10071012
KGNB 101255Z AUTO 00000KT 10SM SCT047 BKN060 OVC100 M01/M01 A3005 RMK AO2 T10081015
KGNB 101235Z AUTO 00000KT 10SM SCT011 SCT060 OVC100 M01/M01 A3005 RMK AO2 T10081010
KGNB 101215Z AUTO 00000KT 10SM BKN011 BKN060 M01/M01 A3005 RMK AO2 T10111015
KGNB 101155Z AUTO 00000KT 10SM OVC011 M01/M01 A3005 RMK AO2 T10061012 10000 21011
KGNB 101135Z AUTO 00000KT 10SM OVC011 M01/M01 A3005 RMK AO2 T10091012
KGNB 101115Z AUTO 00000KT 10SM SCT001 OVC011 M01/M01 A3005 RMK AO2 T10111012
KGNB 101055Z AUTO 00000KT 7SM OVC001 M01/M01 A3005 RMK AO2 T10081008
KGNB 101035Z AUTO 00000KT 10SM BKN001 OVC050 M01/M01 A3005 RMK AO2 T10081008
KGNB 101015Z AUTO 00000KT 5SM BR BKN001 OVC050 00/00 A3006 RMK AO2 T10051005
KGNB 100955Z AUTO 00000KT 7SM SCT003 SCT011 OVC055 00/00 A3006 RMK AO2 T10031004
KGNB 100935Z AUTO 00000KT 10SM SCT003 BKN011 OVC055 00/00 A3006 RMK AO2 T10011001
KGNB 100915Z AUTO 00000KT 10SM OVC011 00/00 A3007 RMK AO2 T10011001
KGNB 100855Z AUTO 00000KT 10SM SCT002 OVC009 00/00 A3007 RMK AO2 T10031003
KGNB 100835Z AUTO 00000KT 1 1/2SM BR OVC002 00/00 A3007 RMK AO2 VIS 3/4V4 T10041004
KGNB 100815Z AUTO 00000KT 1SM BR OVC004 00/00 A3008 RMK AO2 T10051005
KGNB 100755Z AUTO 00000KT 3SM BR SCT002 SCT007 OVC060 00/00 A3008 RMK AO2 T10031005
KGNB 100735Z AUTO 00000KT 10SM SCT002 SCT028 OVC060 00/00 A3009 RMK AO2 T10021003
KGNB 100715Z AUTO 00000KT 7SM -SN SCT021 BKN031 OVC050 00/00 A3010 RMK AO2 T00001005
KGNB 100655Z AUTO 00000KT 3SM -SN SCT005 BKN023 OVC029 00/00 A3010 RMK AO2 LTG DSNT SE T00001001 400961042
KGNB 100635Z AUTO 00000KT 3SM -SN SCT003 BKN020 OVC029 00/00 A3011 RMK AO2 T00000000
KGNB 100615Z AUTO 00000KT 2 1/2SM -SN BKN001 OVC020 00/00 A3011 RMK AO2 T00000000
KGNB 100555Z AUTO 00000KT 2 1/2SM -SN OVC003 00/00 A3011 RMK AO2 T00000000 10057 20000
KGNB 100535Z AUTO 00000KT 2 1/2SM -SN OVC003 00/00 A3011 RMK AO2 T00000000
KGNB 100515Z AUTO 23003KT 2 1/2SM -SN BKN003 OVC018 00/00 A3011 RMK AO2 LTG DSNT SE T00000000
KGNB 100455Z AUTO 00000KT 2SM -SN SCT003 OVC019 00/00 A3011 RMK AO2 T00000000
KGNB 100435Z AUTO 00000KT 2 1/2SM -SN SCT003 SCT006 OVC017 00/00 A3012 RMK AO2 VIS 1 3/4V3 T00000000
KGNB 100415Z AUTO 21003KT 4SM -SN SCT017 BKN021 OVC029 00/00 A3012 RMK AO2 T00020000
KGNB 100355Z AUTO 20003KT 10SM SCT004 BKN032 OVC040 00/00 A3012 RMK AO2 T00030000
KGNB 100335Z AUTO 00000KT 5SM -SN SCT006 SCT023 OVC036 00/00 A3012 RMK AO2 T00030000
KGNB 100315Z AUTO 16004KT 5SM -SN SCT015 SCT019 OVC034 01/00 A3011 RMK AO2 T00051001
KGNB 100255Z AUTO 14006KT 4SM -SN BKN015 BKN023 OVC050 01/00 A3011 RMK AO2 T00111004
KGNB 100235Z AUTO 11005KT 10SM -SN SCT035 BKN047 OVC050 01/M01 A3010 RMK AO2 T00101007
KGNB 100215Z AUTO 09007KT 7SM -SN SCT027 OVC033 02/M01 A3009 RMK AO2 T00151009
KGNB 100155Z AUTO 11005KT 10SM SCT027 BKN041 OVC050 02/M02 A3009 RMK AO2 T00231022
KGNB 100135Z AUTO 00000KT 10SM SCT030 SCT035 OVC043 03/M03 A3009 RMK AO2 T00321028
KGNB 100115Z AUTO 02010KT 10SM SCT029 BKN046 OVC050 04/M04 A3008 RMK AO2 T00401045
KGNB 100055Z AUTO 23011G14KT 10SM SCT046 OVC050 05/M05 A3006 RMK AO2 T00461049
KGNB 100035Z AUTO 19010G14KT 10SM OVC055 04/M04 A3006 RMK AO2 T00411041
KGNB 100015Z AUTO 22011G15KT 10SM SCT037 SCT046 OVC065 06/M05 A3005 RMK AO2 T00561054
KGNB 092355Z AUTO 23013G18KT 10SM SCT042 OVC065 06/M06 A3005 RMK AO2 T00551061 10096 20055
KGNB 092335Z AUTO 23006KT 200V270 10SM SCT046 OVC065 07/M07 A3004 RMK AO2 T00651068
KGNB 092315Z AUTO 34008KT 10SM SCT043 SCT050 OVC060 06/M06 A3003 RMK AO2 T00611062
KGNB 092255Z AUTO 33003G18KT 10SM SCT041 BKN070 OVC080 06/M08 A3002 RMK AO2 T00641078
KGNB 092235Z AUTO 27010KT 10SM SCT060 BKN070 OVC100 08/M08 A3002 RMK AO2 T00801081
KGNB 092215Z AUTO 26012G17KT 10SM SCT070 BKN075 OVC100 08/M08 A3002 RMK AO2 T00781076
KGNB 092155Z AUTO 27010G16KT 10SM SCT026 SCT047 OVC100 08/M08 A3002 RMK AO2 T00781078
KGNB 092135Z AUTO 27018G30KT 10SM SCT047 BKN070 OVC080 07/M08 A3003 RMK AO2 T00691085
KGNB 092115Z AUTO 21012G16KT 10SM SCT060 BKN070 OVC080 08/M09 A3001 RMK AO2 T00811094
KGNB 092055Z AUTO 21011G19KT 10SM SCT060 BKN070 OVC080 08/M10 A3001 RMK AO2 T00791104
KGNB 092035Z AUTO 22009G18KT 10SM SCT060 SCT070 BKN080 09/M10 A3001 RMK AO2 T00871105
KGNB 092015Z AUTO 00000KT 10SM SCT060 BKN080 08/M11 A3001 RMK AO2 T00821112
KGNB 091955Z AUTO 26006KT 10SM SCT080 09/M11 A3002 RMK AO2 T00881113
KGNB 091935Z AUTO 29003G15KT 10SM BKN080 08/M12 A3002 RMK AO2 T00811120
KGNB 091915Z AUTO 31006G17KT 10SM BKN090 BKN100 08/M12 A3003 RMK AO2 T00811116
KGNB 091855Z AUTO 30010G25KT 10SM BKN100 08/M11 A3004 RMK AO2 T00841114
KGNB 091835Z AUTO 27009G14KT 10SM OVC100 08/M11 A3005 RMK AO2 T00761114
KGNB 091815Z AUTO 28004G17KT 10SM OVC110 08/M12 A3006 RMK AO2 T00761117
KGNB 091755Z AUTO 23008G15KT 200V260 10SM OVC100 08/M11 A3006 RMK AO2 T00761111 10077 21042
KGNB 091735Z AUTO 28003G15KT 10SM SCT100 07/M12 A3007 RMK AO2 T00711123
KGNB 091715Z AUTO 32005KT 10SM SCT110 06/M12 A3007 RMK AO2 T00621119
KGNB 091655Z AUTO 28004KT 10SM SCT110 06/M12 A3008 RMK AO2 T00611116
KGNB 091635Z AUTO 04003KT 10SM SCT120 06/M11 A3008 RMK AO2 T00571112
KGNB 091615Z AUTO 00000KT 10SM CLR 05/M11 A3008 RMK AO2 T00501107
KGNB 091555Z AUTO 31003KT 10SM CLR 04/M11 A3009 RMK AO2 T00391107
KGNB 091535Z AUTO 22003KT 10SM CLR 04/M11 A3009 RMK AO2 T00361112
KGNB 091515Z AUTO 33004KT 10SM CLR 04/M10 A3009 RMK AO2 T00361098
KGNB 091455Z AUTO 34003KT 10SM CLR 02/M09 A3010 RMK AO2 T00241093
KGNB 091435Z AUTO 00000KT 10SM CLR 01/M10 A3011 RMK AO2 T00141099
KGNB 091415Z AUTO 00000KT 10SM CLR 01/M09 A3011 RMK AO2 T00111090
KGNB 091355Z AUTO 00000KT 10SM CLR 01/M09 A3011 RMK AO2 T00091094
KGNB 091335Z AUTO 00000KT 10SM CLR 00/M10 A3011 RMK AO2 T00021098
KGNB 091315Z AUTO 13003KT 10SM CLR M01/M08 A3011 RMK AO2 T10071085
KGNB 091255Z AUTO 00000KT 10SM CLR M02/M09 A3011 RMK AO2 T10201087
KGNB 091235Z AUTO 05003KT 10SM CLR M04/M09 A3011 RMK AO2 T10391094
KGNB 091215Z AUTO 09006KT 10SM CLR M04/M09 A3010 RMK AO2 T10371093
KGNB 091155Z AUTO 00000KT 10SM CLR M04/M10 A3010 RMK AO2 T10371099 10022 21039
KGNB 091135Z AUTO 08004KT 10SM CLR M04/M09 A3009 RMK AO2 T10371090
KGNB 091115Z AUTO 10003KT 10SM CLR M03/M09 A3009 RMK AO2 T10321094
KGNB 091055Z AUTO 04003KT 10SM SCT070 M03/M09 A3009 RMK AO2 T10331090